This is the latest recevied weather packets stored in our database for station/object W5ALL-WX. If no packets are shown the sender has not sent any weather packets the latest 1 day(s).
| Time | Temp. | Humidity | Pressure | Rain* | Wind** | Luminosity | Snow |
|---|---|---|---|---|---|---|---|
| 1778041331 | 18.89° C | 34% | 1011.1 hPa | 0 mm | 2.68 m/s, 170° | - | - |
| 1778041031 | 18.89° C | 34% | 1011 hPa | 0 mm | 2.24 m/s, 198° | - | - |
| 1778040731 | 18.89° C | 34% | 1011 hPa | 0 mm | 2.24 m/s, 179° | - | - |
| 1778040431 | 18.89° C | 34% | 1010.8 hPa | 0 mm | 1.79 m/s, 190° | - | - |
| 1778040131 | 18.89° C | 34% | 1010.7 hPa | 0 mm | 1.79 m/s, 187° | - | - |
| 1778039831 | 18.89° C | 34% | 1010.7 hPa | 0 mm | 2.24 m/s, 174° | - | - |
| 1778039531 | 18.89° C | 34% | 1010.7 hPa | 0 mm | 2.24 m/s, 195° | - | - |
| 1778039231 | 18.89° C | 34% | 1010.6 hPa | 0 mm | 1.79 m/s, 179° | - | - |
| 1778038931 | 18.89° C | 34% | 1010.5 hPa | 0 mm | 1.79 m/s, 191° | - | - |
| 1778038631 | 18.89° C | 35% | 1010.5 hPa | 0 mm | 2.24 m/s, 173° | - | - |
| 1778038331 | 18.89° C | 35% | 1010.5 hPa | 0 mm | 1.79 m/s, 186° | - | - |
| 1778038031 | 19.44° C | 34% | 1010.5 hPa | 0 mm | 1.34 m/s, 214° | - | - |
| 1778037731 | 19.44° C | 34% | 1010.5 hPa | 0 mm | 1.34 m/s, 190° | - | - |
| 1778037431 | 19.44° C | 34% | 1010.4 hPa | 0 mm | 1.79 m/s, 190° | - | - |
| 1778037131 | 19.44° C | 33% | 1010.4 hPa | 0 mm | 1.79 m/s, 184° | - | - |
| 1778036831 | 19.44° C | 33% | 1010.3 hPa | 0 mm | 1.79 m/s, 188° | - | - |
| 1778036531 | 19.44° C | 34% | 1010.3 hPa | 0 mm | 1.79 m/s, 201° | - | - |
| 1778036231 | 19.44° C | 34% | 1010.3 hPa | 0 mm | 1.79 m/s, 184° | - | - |
| 1778035931 | 19.44° C | 34% | 1010.1 hPa | 0 mm | 1.34 m/s, 215° | - | - |
| 1778035631 | 19.44° C | 34% | 1010.1 hPa | 0 mm | 1.79 m/s, 195° | - | - |
| 1778035331 | 19.44° C | 34% | 1010.1 hPa | 0 mm | 2.24 m/s, 187° | - | - |
| 1778035031 | 19.44° C | 34% | 1009.9 hPa | 0 mm | 0.89 m/s, 197° | - | - |
| 1778034731 | 19.44° C | 34% | 1010 hPa | 0 mm | 1.79 m/s, 180° | - | - |
| 1778034431 | 20° C | 33% | 1009.9 hPa | 0 mm | 0 m/s | - | - |
| 1778034131 | 20° C | 33% | 1009.9 hPa | 0 mm | 1.34 m/s, 181° | - | - |
* Rain latest hour (hover to see other rain measurements)
** Current wind speed in m/s (hover to see current wind gust speed)